createdAt,value
2023-03-20T00:02:00.473Z,37.97
2023-03-20T00:04:29.697Z,38.25
2023-03-20T00:06:57.303Z,37.79
2023-03-20T00:09:26.662Z,37.98
2023-03-20T00:11:55.577Z,38.09
2023-03-20T00:14:24.962Z,38.05
2023-03-20T00:16:52.624Z,38.94
2023-03-20T00:19:26.006Z,38.47
2023-03-20T00:21:55.005Z,38.19
2023-03-20T00:24:23.836Z,38.17
2023-03-20T00:26:52.445Z,38.10
2023-03-20T00:29:31.050Z,38.32
2023-03-20T00:31:59.343Z,38.29
2023-03-20T00:34:29.565Z,38.44
2023-03-20T00:36:58.109Z,38.94
2023-03-20T00:39:26.280Z,39.70
2023-03-20T00:42:01.829Z,39.06
2023-03-20T00:44:41.912Z,39.09
2023-03-20T00:47:20.735Z,39.65
2023-03-20T00:49:50.800Z,38.95
2023-03-20T00:52:19.435Z,38.84
2023-03-20T00:54:46.998Z,39.21
2023-03-20T00:57:17.966Z,39.17
2023-03-20T01:00:09.366Z,38.85
2023-03-20T01:02:37.376Z,40.17
2023-03-20T01:05:05.950Z,39.87
2023-03-20T01:07:33.960Z,40.31
2023-03-20T01:10:04.426Z,39.45
2023-03-20T01:12:32.324Z,40.35
2023-03-20T01:15:01.156Z,40.00
2023-03-20T01:17:29.986Z,40.31
2023-03-20T01:19:57.384Z,40.39
2023-03-20T01:22:24.843Z,40.58
2023-03-20T01:24:52.556Z,40.49
2023-03-20T01:27:20.996Z,40.67
2023-03-20T01:29:48.455Z,40.72
2023-03-20T01:32:18.481Z,40.94
2023-03-20T01:34:47.604Z,40.81
2023-03-20T01:37:18.441Z,40.88
2023-03-20T01:39:46.216Z,40.84
2023-03-20T01:42:17.214Z,40.90
2023-03-20T01:44:45.679Z,41.62
2023-03-20T01:47:23.738Z,41.06
2023-03-20T01:50:26.296Z,41.24
2023-03-20T01:53:02.468Z,41.11
2023-03-20T01:55:30.433Z,42.15
2023-03-20T01:58:01.923Z,41.66
2023-03-20T02:00:30.623Z,41.85
2023-03-20T02:02:58.884Z,41.78
2023-03-20T02:05:28.544Z,41.63
2023-03-20T02:08:23.731Z,42.34
2023-03-20T02:10:51.588Z,42.67
2023-03-20T02:13:21.868Z,42.03
2023-03-20T02:16:14.279Z,41.94
2023-03-20T02:18:47.460Z,42.16
2023-03-20T02:21:21.964Z,43.08
2023-03-20T02:24:15.427Z,42.43
2023-03-20T02:26:53.500Z,42.82
2023-03-20T02:29:46.474Z,42.57
2023-03-20T02:32:35.337Z,42.68
2023-03-20T02:35:17.608Z,42.25
2023-03-20T02:37:54.354Z,42.44
2023-03-20T02:40:38.362Z,42.03
2023-03-20T02:43:44.336Z,42.54
2023-03-20T02:46:17.958Z,42.49
2023-03-20T02:48:58.427Z,43.06
2023-03-20T02:51:35.614Z,43.02
2023-03-20T02:54:29.126Z,43.03
2023-03-20T02:57:06.024Z,42.65
2023-03-20T03:00:18.965Z,42.87
2023-03-20T03:03:13.580Z,42.98
2023-03-20T03:05:45.530Z,42.91
2023-03-20T03:08:16.701Z,43.15
2023-03-20T03:10:49.093Z,43.20
2023-03-20T03:13:19.950Z,42.69
2023-03-20T03:15:51.127Z,43.13
2023-03-20T03:18:23.283Z,43.74
2023-03-20T03:20:56.457Z,43.50
2023-03-20T03:23:44.756Z,44.09
2023-03-20T03:26:25.353Z,44.41
2023-03-20T03:28:58.276Z,44.48
2023-03-20T03:31:28.460Z,45.05
2023-03-20T03:33:59.201Z,44.97
2023-03-20T03:36:36.113Z,44.91
2023-03-20T03:39:13.123Z,44.73
2023-03-20T03:41:42.818Z,44.73
2023-03-20T03:44:29.187Z,45.05
2023-03-20T03:47:10.386Z,45.06
2023-03-20T03:49:44.463Z,44.87
2023-03-20T03:52:15.590Z,44.59
2023-03-20T03:54:46.844Z,44.92
2023-03-20T03:57:21.981Z,44.53
2023-03-20T03:59:51.172Z,44.94
2023-03-20T04:02:19.737Z,45.16
2023-03-20T04:05:07.824Z,44.77
2023-03-20T04:07:36.560Z,44.52
2023-03-20T04:10:04.549Z,44.75
2023-03-20T04:12:39.016Z,44.88
2023-03-20T04:15:09.789Z,44.71
2023-03-20T04:17:37.294Z,45.22
2023-03-20T04:20:05.642Z,44.67
2023-03-20T04:22:35.081Z,45.14
2023-03-20T04:25:06.838Z,44.72
2023-03-20T04:27:34.938Z,44.47
2023-03-20T04:30:03.904Z,45.18
2023-03-20T04:32:32.026Z,45.13
2023-03-20T04:34:59.946Z,45.04
2023-03-20T04:37:27.701Z,44.72
2023-03-20T04:39:56.022Z,45.10
2023-03-20T04:42:23.777Z,44.87
2023-03-20T04:44:51.831Z,45.54
2023-03-20T04:47:19.316Z,45.82
2023-03-20T04:49:47.303Z,46.25
2023-03-20T04:52:15.314Z,46.51
2023-03-20T04:54:42.971Z,46.14
2023-03-20T04:57:10.677Z,45.93
2023-03-20T04:59:39.132Z,46.41
2023-03-20T05:02:07.006Z,46.62
2023-03-20T05:04:34.944Z,46.72
2023-03-20T05:07:03.207Z,47.86
2023-03-20T05:09:32.174Z,47.21
2023-03-20T05:12:01.407Z,47.66
2023-03-20T05:14:30.975Z,47.22
2023-03-20T05:16:59.939Z,48.07
2023-03-20T05:19:28.069Z,47.16
2023-03-20T05:21:56.361Z,47.74
2023-03-20T05:24:25.568Z,47.67
2023-03-20T05:26:53.416Z,47.51
2023-03-20T05:29:22.584Z,47.84
2023-03-20T05:31:56.368Z,47.64
2023-03-20T05:34:25.651Z,46.84
2023-03-20T05:36:54.300Z,46.40
2023-03-20T05:39:23.451Z,46.63
2023-03-20T05:41:51.229Z,46.30
2023-03-20T05:44:21.162Z,46.35
2023-03-20T05:46:48.838Z,46.32
2023-03-20T05:49:16.461Z,47.05
2023-03-20T05:51:46.917Z,46.50
2023-03-20T05:54:15.195Z,46.84
2023-03-20T05:56:43.537Z,46.65
2023-03-20T05:59:11.996Z,47.24
2023-03-20T06:01:39.524Z,47.03
2023-03-20T06:04:08.539Z,46.28
2023-03-20T06:06:38.069Z,46.38
2023-03-20T06:09:05.725Z,47.44
2023-03-20T06:11:36.253Z,46.81
2023-03-20T06:14:05.368Z,45.81
2023-03-20T06:16:33.655Z,45.84
2023-03-20T06:19:01.242Z,44.72
2023-03-20T06:21:29.282Z,43.95
2023-03-20T06:23:58.162Z,43.73
2023-03-20T06:26:26.020Z,43.33
2023-03-20T06:28:54.042Z,42.33
2023-03-20T06:31:21.980Z,42.53
2023-03-20T06:33:49.997Z,42.29
2023-03-20T06:36:17.460Z,41.36
2023-03-20T06:38:45.959Z,41.79
2023-03-20T06:41:27.814Z,41.33
2023-03-20T06:44:04.568Z,41.02
2023-03-20T06:46:35.666Z,42.50
2023-03-20T06:49:03.950Z,40.48
2023-03-20T06:51:31.653Z,40.65
2023-03-20T06:53:59.171Z,40.86
2023-03-20T06:56:26.962Z,40.44
2023-03-20T06:58:54.533Z,40.92
2023-03-20T07:01:22.228Z,40.60
2023-03-20T07:03:52.692Z,40.41
2023-03-20T07:06:21.585Z,40.37
2023-03-20T07:08:52.853Z,40.50
2023-03-20T07:11:21.116Z,40.04
2023-03-20T07:13:49.992Z,40.22
2023-03-20T07:16:18.068Z,40.45
2023-03-20T07:18:46.756Z,39.31
2023-03-20T07:21:19.327Z,38.72
2023-03-20T07:23:47.899Z,37.44
2023-03-20T07:26:15.663Z,37.76
2023-03-20T07:28:43.090Z,37.22
2023-03-20T07:31:24.736Z,37.74
2023-03-20T07:33:52.628Z,37.84
2023-03-20T07:36:20.330Z,37.75
2023-03-20T07:38:47.850Z,36.74
2023-03-20T07:41:15.433Z,36.83
2023-03-20T07:43:44.771Z,37.46
2023-03-20T07:46:14.124Z,36.38
2023-03-20T07:48:41.617Z,35.70
2023-03-20T07:51:09.345Z,35.71
2023-03-20T07:53:37.092Z,34.69
2023-03-20T07:56:05.001Z,35.31
2023-03-20T07:58:32.696Z,34.83
2023-03-20T08:01:03.065Z,35.01
2023-03-20T08:03:31.786Z,35.81
2023-03-20T08:05:59.364Z,34.86
2023-03-20T08:08:27.130Z,34.74
2023-03-20T08:10:54.894Z,34.45
2023-03-20T08:13:22.307Z,34.55
2023-03-20T08:15:49.748Z,34.26
2023-03-20T08:18:17.559Z,34.28
2023-03-20T08:20:44.966Z,33.77
2023-03-20T08:23:12.463Z,34.17
2023-03-20T08:25:40.518Z,33.70
2023-03-20T08:28:07.941Z,33.50
2023-03-20T08:30:35.669Z,33.44
2023-03-20T08:33:03.427Z,32.37
2023-03-20T08:35:33.462Z,32.51
2023-03-20T08:38:01.411Z,32.89
2023-03-20T08:40:29.249Z,33.24
2023-03-20T08:42:56.741Z,33.66
2023-03-20T08:45:27.265Z,33.15
2023-03-20T08:47:55.100Z,32.84
2023-03-20T08:50:22.799Z,33.27
2023-03-20T08:52:50.260Z,33.68
2023-03-20T08:55:18.111Z,34.30
2023-03-20T08:57:46.729Z,34.30
2023-03-20T09:00:15.626Z,33.38
2023-03-20T09:02:43.783Z,33.40
2023-03-20T09:05:11.334Z,33.68
2023-03-20T09:07:38.734Z,34.21
2023-03-20T09:10:07.114Z,35.20
2023-03-20T09:12:34.609Z,34.27
2023-03-20T09:15:02.696Z,34.49
2023-03-20T09:17:31.568Z,35.20
2023-03-20T09:19:59.001Z,34.66
2023-03-20T09:22:26.409Z,35.61
2023-03-20T09:24:54.109Z,34.08
2023-03-20T09:27:21.703Z,34.48
2023-03-20T09:29:49.116Z,34.95
2023-03-20T09:32:16.881Z,34.75
2023-03-20T09:34:44.347Z,34.18
2023-03-20T09:37:11.779Z,35.46
2023-03-20T09:39:39.515Z,34.65
2023-03-20T09:42:28.217Z,33.42
2023-03-20T09:45:22.550Z,34.56
2023-03-20T09:48:11.242Z,34.06
2023-03-20T09:50:51.655Z,33.87
2023-03-20T09:54:02.588Z,32.62
2023-03-20T09:56:31.140Z,32.55
2023-03-20T09:59:01.190Z,32.13
2023-03-20T10:01:38.406Z,33.19
2023-03-20T10:04:11.646Z,33.37
2023-03-20T10:06:39.137Z,33.03
2023-03-20T10:09:18.029Z,32.64
2023-03-20T10:12:23.597Z,33.75
2023-03-20T10:15:33.112Z,33.13
2023-03-20T10:18:10.005Z,32.19
2023-03-20T10:20:55.019Z,33.38
2023-03-20T10:23:31.584Z,33.07
2023-03-20T10:26:07.276Z,31.78
2023-03-20T10:28:50.716Z,32.51
2023-03-20T10:31:28.511Z,32.10
2023-03-20T10:34:14.246Z,31.74
2023-03-20T10:36:56.442Z,31.61
2023-03-20T10:39:53.092Z,31.79
2023-03-20T10:42:24.613Z,32.14
2023-03-20T10:44:58.134Z,31.85
2023-03-20T10:47:29.186Z,31.59
2023-03-20T10:50:12.350Z,31.06
2023-03-20T10:52:41.816Z,31.30
2023-03-20T10:55:22.600Z,30.33
2023-03-20T10:57:58.180Z,30.55
2023-03-20T11:00:27.172Z,30.43
2023-03-20T11:02:54.874Z,30.29
2023-03-20T11:05:34.067Z,30.21
2023-03-20T11:08:22.859Z,29.63
2023-03-20T11:10:59.072Z,30.85
2023-03-20T11:13:53.167Z,29.29
2023-03-20T11:16:26.108Z,30.78
2023-03-20T11:18:56.729Z,30.31
2023-03-20T11:21:29.358Z,31.15
2023-03-20T11:23:57.318Z,30.49
2023-03-20T11:26:30.862Z,31.00
2023-03-20T11:28:59.764Z,30.82
2023-03-20T11:31:41.147Z,31.19
2023-03-20T11:34:15.406Z,31.11
2023-03-20T11:37:10.519Z,31.43
2023-03-20T11:39:40.122Z,32.18
2023-03-20T11:42:24.694Z,30.54
2023-03-20T11:45:13.870Z,30.77
2023-03-20T11:47:41.768Z,32.02
2023-03-20T11:50:42.398Z,31.70
2023-03-20T11:53:37.032Z,31.42
2023-03-20T11:56:13.566Z,32.17
2023-03-20T11:58:59.124Z,32.17
2023-03-20T12:01:27.902Z,30.30
2023-03-20T12:03:55.790Z,31.32
2023-03-20T12:06:27.256Z,31.62
2023-03-20T12:09:00.502Z,31.22
2023-03-20T12:12:05.230Z,31.47
2023-03-20T12:14:47.513Z,30.88
2023-03-20T12:17:31.400Z,30.81
2023-03-20T12:20:04.418Z,31.41
2023-03-20T12:22:58.681Z,31.49
2023-03-20T12:25:55.611Z,31.17
2023-03-20T12:28:42.149Z,31.60
2023-03-20T12:31:28.299Z,32.52
2023-03-20T12:34:23.296Z,31.23
2023-03-20T12:36:53.092Z,31.52
2023-03-20T12:39:25.914Z,31.26
2023-03-20T12:42:09.520Z,32.17
2023-03-20T12:44:51.469Z,31.40
2023-03-20T12:47:21.878Z,32.31
2023-03-20T12:49:52.257Z,31.96
2023-03-20T12:52:43.412Z,31.43
2023-03-20T12:55:35.462Z,31.25
2023-03-20T12:58:26.157Z,31.19
2023-03-20T13:01:07.388Z,32.82
2023-03-20T13:04:08.914Z,32.11
2023-03-20T13:06:39.623Z,32.72
2023-03-20T13:09:28.431Z,32.58
2023-03-20T13:12:01.826Z,32.39
2023-03-20T13:14:48.755Z,32.10
2023-03-20T13:17:42.329Z,32.93
2023-03-20T13:20:17.277Z,32.70
2023-03-20T13:23:22.750Z,32.02
2023-03-20T13:26:13.965Z,33.11
2023-03-20T13:29:16.621Z,32.52
2023-03-20T13:31:53.788Z,31.53
2023-03-20T13:34:54.202Z,31.74
2023-03-20T13:37:26.802Z,31.81
2023-03-20T13:39:54.480Z,32.29
2023-03-20T13:42:23.423Z,32.59
2023-03-20T13:44:51.576Z,31.34
2023-03-20T13:47:24.043Z,32.10
2023-03-20T13:50:12.811Z,32.49
2023-03-20T13:52:50.864Z,32.55
2023-03-20T13:55:32.564Z,31.35
2023-03-20T13:58:34.526Z,31.74
2023-03-20T14:01:23.160Z,32.83
2023-03-20T14:03:52.066Z,33.50
2023-03-20T14:06:42.197Z,32.88
2023-03-20T14:09:43.992Z,31.87
2023-03-20T14:12:12.963Z,32.18
2023-03-20T14:14:49.065Z,33.38
2023-03-20T14:17:25.696Z,32.13
2023-03-20T14:19:53.372Z,34.25
2023-03-20T14:22:28.159Z,33.79
2023-03-20T14:25:18.797Z,33.42
2023-03-20T14:28:01.133Z,32.84
2023-03-20T14:30:31.857Z,32.56
2023-03-20T14:33:26.129Z,33.02
2023-03-20T14:36:17.753Z,34.29
2023-03-20T14:38:59.361Z,33.45
2023-03-20T14:41:30.766Z,33.54
2023-03-20T14:44:24.195Z,33.62
2023-03-20T14:47:21.503Z,33.60
2023-03-20T14:49:53.274Z,32.97
2023-03-20T14:52:30.294Z,34.02
2023-03-20T14:55:15.119Z,33.34
2023-03-20T14:57:55.642Z,34.30
2023-03-20T15:00:30.242Z,33.54
2023-03-20T15:03:14.078Z,34.03
2023-03-20T15:05:42.312Z,34.02
2023-03-20T15:08:25.143Z,33.87
2023-03-20T15:10:58.364Z,34.36
2023-03-20T15:13:26.804Z,33.60
2023-03-20T15:15:59.200Z,33.42
2023-03-20T15:18:27.634Z,34.14
2023-03-20T15:20:58.359Z,34.11
2023-03-20T15:23:26.304Z,33.98
2023-03-20T15:25:54.051Z,34.01
2023-03-20T15:28:26.121Z,33.11
2023-03-20T15:30:57.081Z,34.23
2023-03-20T15:33:31.804Z,34.06
2023-03-20T15:36:07.823Z,33.92
2023-03-20T15:38:35.341Z,33.13
2023-03-20T15:41:28.233Z,34.65
2023-03-20T15:44:37.992Z,34.14
2023-03-20T15:47:20.737Z,34.16
2023-03-20T15:50:00.718Z,34.08
2023-03-20T15:52:43.859Z,35.11
2023-03-20T15:55:20.004Z,35.41
2023-03-20T15:57:50.354Z,35.20
2023-03-20T16:00:24.296Z,34.67
2023-03-20T16:02:52.023Z,34.86
2023-03-20T16:05:21.323Z,35.00
2023-03-20T16:07:48.733Z,34.49
2023-03-20T16:10:21.863Z,35.94
2023-03-20T16:12:51.086Z,35.57
2023-03-20T16:15:19.436Z,35.17
2023-03-20T16:17:48.646Z,35.85
2023-03-20T16:20:17.067Z,36.63
2023-03-20T16:22:45.545Z,36.62
2023-03-20T16:25:15.523Z,37.09
2023-03-20T16:27:46.158Z,37.42
2023-03-20T16:30:17.567Z,37.09
2023-03-20T16:32:47.350Z,36.98
2023-03-20T16:35:19.293Z,37.23
2023-03-20T16:37:49.869Z,37.51
2023-03-20T16:40:33.198Z,36.50
2023-03-20T16:43:16.503Z,38.30
2023-03-20T16:45:46.809Z,37.17
2023-03-20T16:48:21.767Z,37.94
2023-03-20T16:50:57.017Z,38.66
2023-03-20T16:53:28.922Z,38.76
2023-03-20T16:55:59.857Z,38.17
2023-03-20T16:58:30.080Z,39.95
2023-03-20T17:01:04.024Z,39.57
2023-03-20T17:03:39.992Z,39.08
2023-03-20T17:06:20.806Z,39.36
2023-03-20T17:09:00.818Z,38.94
2023-03-20T17:11:34.621Z,39.57
2023-03-20T17:14:04.340Z,39.41
2023-03-20T17:16:36.207Z,40.49
2023-03-20T17:19:14.353Z,40.33
2023-03-20T17:21:43.014Z,40.03
2023-03-20T17:24:11.778Z,40.46
2023-03-20T17:26:41.623Z,40.80
2023-03-20T17:29:11.886Z,41.20
2023-03-20T17:31:39.645Z,41.00
2023-03-20T17:34:07.255Z,40.82
2023-03-20T17:36:35.414Z,41.26
2023-03-20T17:39:03.435Z,41.42
2023-03-20T17:41:31.600Z,41.19
2023-03-20T17:44:00.565Z,41.40
2023-03-20T17:46:31.345Z,41.51
2023-03-20T17:49:06.471Z,41.78
2023-03-20T17:51:37.504Z,41.87
2023-03-20T17:54:07.780Z,42.05
2023-03-20T17:56:36.777Z,42.54
2023-03-20T17:59:06.719Z,42.51
2023-03-20T18:01:36.756Z,42.22
2023-03-20T18:04:04.836Z,42.21
2023-03-20T18:06:33.984Z,42.56
2023-03-20T18:09:03.513Z,42.53
2023-03-20T18:11:33.008Z,43.18
2023-03-20T18:14:04.127Z,42.98
2023-03-20T18:16:33.509Z,43.09
2023-03-20T18:19:03.818Z,43.87
2023-03-20T18:21:32.528Z,43.87
2023-03-20T18:24:00.495Z,43.88
2023-03-20T18:26:28.735Z,44.13
2023-03-20T18:28:58.250Z,44.11
2023-03-20T18:31:27.750Z,44.24
2023-03-20T18:33:56.076Z,43.96
2023-03-20T18:36:25.425Z,44.10
2023-03-20T18:38:53.477Z,44.05
2023-03-20T18:41:23.869Z,44.37
2023-03-20T18:43:53.717Z,44.01
2023-03-20T18:46:23.543Z,44.23
2023-03-20T18:48:53.621Z,44.42
2023-03-20T18:51:23.759Z,44.53
2023-03-20T18:53:53.568Z,44.57
2023-03-20T18:56:27.503Z,44.24
2023-03-20T18:58:56.572Z,44.67
2023-03-20T19:01:27.699Z,44.79
2023-03-20T19:03:56.725Z,44.92
2023-03-20T19:06:25.924Z,44.58
2023-03-20T19:08:56.528Z,44.75
2023-03-20T19:11:25.437Z,45.01
2023-03-20T19:13:55.820Z,45.20
2023-03-20T19:16:29.554Z,45.39
2023-03-20T19:19:01.723Z,45.65
2023-03-20T19:21:32.776Z,45.58
2023-03-20T19:24:05.998Z,45.84
2023-03-20T19:26:38.008Z,46.12
2023-03-20T19:29:09.923Z,46.16
2023-03-20T19:31:38.813Z,46.00
2023-03-20T19:34:16.215Z,46.73
2023-03-20T19:36:53.931Z,46.98
2023-03-20T19:39:23.182Z,47.08
2023-03-20T19:41:53.186Z,47.21
2023-03-20T19:44:21.779Z,47.08
2023-03-20T19:46:51.280Z,46.61
2023-03-20T19:49:30.158Z,46.42
2023-03-20T19:52:00.851Z,46.58
2023-03-20T19:54:30.859Z,47.03
2023-03-20T19:57:00.195Z,46.94
2023-03-20T19:59:32.742Z,46.52
2023-03-20T20:02:02.354Z,46.95
2023-03-20T20:04:31.619Z,46.88
2023-03-20T20:07:40.618Z,47.16
2023-03-20T20:09:50.587Z,47.43
2023-03-20T20:12:19.577Z,47.61
2023-03-20T20:14:48.629Z,47.60
2023-03-20T20:17:17.720Z,47.10
2023-03-20T20:19:46.428Z,47.40
2023-03-20T20:22:25.277Z,47.83
2023-03-20T20:24:55.524Z,48.05
2023-03-20T20:27:25.217Z,48.30
2023-03-20T20:29:54.630Z,48.68
2023-03-20T20:32:26.252Z,48.18
2023-03-20T20:38:30.507Z,48.59
2023-03-20T20:40:37.166Z,48.65
2023-03-20T20:43:10.547Z,49.11
2023-03-20T20:45:39.470Z,48.50
2023-03-20T20:48:09.102Z,49.38
2023-03-20T20:50:39.651Z,49.25
2023-03-20T20:53:09.027Z,49.41
2023-03-20T20:55:38.765Z,49.86
2023-03-20T20:58:07.638Z,49.98
2023-03-20T21:00:49.350Z,50.83
2023-03-20T21:03:21.263Z,50.80
2023-03-20T21:05:51.429Z,50.11
2023-03-20T21:08:19.825Z,50.27
2023-03-20T21:10:49.138Z,50.19
2023-03-20T21:13:17.177Z,49.71
2023-03-20T21:15:46.996Z,50.11
2023-03-20T21:18:15.253Z,51.79
2023-03-20T21:20:44.596Z,50.98
2023-03-20T21:23:12.882Z,51.28
2023-03-20T21:25:45.443Z,51.92
2023-03-20T21:28:15.528Z,53.16
2023-03-20T21:31:00.024Z,52.33
2023-03-20T21:33:33.039Z,53.65
2023-03-20T21:36:01.236Z,52.67
2023-03-20T21:39:01.912Z,52.55
2023-03-20T21:41:19.057Z,52.72
2023-03-20T21:43:47.607Z,53.20
2023-03-20T21:46:54.395Z,53.44
2023-03-20T21:52:43.986Z,54.08
2023-03-20T22:01:12.161Z,56.52
2023-03-20T22:03:10.894Z,56.17
2023-03-20T22:17:43.559Z,56.81
2023-03-20T22:20:29.239Z,56.51
2023-03-20T22:25:56.009Z,57.01
2023-03-20T22:40:03.267Z,55.15
2023-03-20T22:42:49.615Z,55.03
2023-03-20T22:45:01.407Z,54.92
2023-03-20T22:47:31.035Z,57.00
2023-03-20T22:50:23.813Z,56.09
2023-03-20T22:52:55.379Z,55.43
2023-03-20T22:55:23.821Z,55.71
2023-03-20T22:58:05.921Z,56.69
2023-03-20T23:00:34.712Z,56.22
2023-03-20T23:03:38.118Z,56.72
2023-03-20T23:05:56.025Z,56.53
2023-03-20T23:08:24.938Z,55.82
2023-03-20T23:11:12.438Z,55.79
2023-03-20T23:13:40.424Z,55.41
2023-03-20T23:16:08.399Z,55.88
2023-03-20T23:18:36.682Z,57.65
2023-03-20T23:21:04.819Z,58.10
2023-03-20T23:23:32.290Z,58.12
2023-03-20T23:26:14.710Z,58.42
2023-03-20T23:28:44.396Z,58.41
2023-03-20T23:31:24.313Z,57.96
2023-03-20T23:33:54.346Z,57.61
2023-03-20T23:36:35.438Z,57.04
2023-03-20T23:39:09.694Z,56.22
2023-03-20T23:44:25.341Z,56.75
2023-03-20T23:46:53.130Z,57.26
2023-03-20T23:49:20.728Z,56.27
2023-03-20T23:51:48.505Z,58.07
2023-03-20T23:54:16.295Z,57.14
2023-03-20T23:56:43.805Z,56.97
2023-03-20T23:59:21.106Z,55.88
